Terminal Aerodrome Forecast
Issued by NWS

Home | Current Version | Previous Version | Text Only | Print | Product List | Glossary On
Versions: 1 2 3 4 5 6 7 8 9 10 11 12 13 14 15 16
000
FTUS42 KMLB 211200 AAA
TAFISM
TAF AMD
KISM 211207Z 2112/2212 34005KT P6SM SCT007
      TEMPO 2112/2113 1SM BR BKN002
     FM211400 02004KT P6SM FEW025 BKN250
     FM211800 18004KT P6SM VCSH SCT030 BKN100
     FM220100 18003KT P6SM FEW035 BKN120=

USA.gov is the U.S. government's official web portal to all federal, state and local government web resources and services.